Time;durP1;ratioP1;P1;durP2;ratioP2;P2;SDS_P1;SDS_P2;PMS_P1;PMS_P2;Temp;Humidity;BMP_temperature;BMP_pressure;BME280_temperature;BME280_humidity;BME280_pressure;Samples;Min_cycle;Max_cycle;Signal;HPM_P1;HPM_P2
2022/07/22 00:01:53;;;;;;;;;;;;;;;22.38;40.50;153281.73;1694185;84;20459;-62
2022/07/22 00:04:20;;;;;;;;;;;;;;;22.33;40.63;153269.95;1694443;84;21132;-62
2022/07/22 00:06:47;;;;;;;;;;;;;;;22.28;40.86;153255.55;1694311;84;20186;-62
2022/07/22 00:09:14;;;;;;;;;;;;;;;22.23;40.96;153243.81;1694237;84;20258;-62
2022/07/22 00:11:41;;;;;;;;;;;;;;;22.18;41.07;153230.69;1695538;84;20174;-61
2022/07/22 00:14:07;;;;;;;;;;;;;;;22.15;41.29;153222.86;1744537;82;20217;-61
2022/07/22 00:16:34;;;;;;;;;;;;;;;22.14;41.38;153221.58;1744496;82;21226;-61
2022/07/22 00:19:02;;;;;;;;;;;;;;;22.17;41.35;153228.09;1732014;81;20225;-61
2022/07/22 00:21:28;;;;;;;;;;;;;;;22.09;41.45;153208.47;1751049;82;20162;-70
2022/07/22 00:23:56;;;;;;;;;;;;;;;21.98;41.74;153179.72;1751082;82;21020;-70
2022/07/22 00:26:23;;;;;;;;;;;;;;;21.88;41.92;153156.20;1751160;82;20228;-70
2022/07/22 00:28:50;;;;;;;;;;;;;;;21.76;42.12;153124.80;1751036;82;21197;-69
2022/07/22 00:31:17;;;;;;;;;;;;;;;21.68;42.30;153105.19;1750777;82;20505;-70
2022/07/22 00:33:44;;;;;;;;;;;;;;;21.62;42.53;153089.45;1751119;82;20475;-61
2022/07/22 00:36:11;;;;;;;;;;;;;;;21.53;42.89;153067.22;1751228;82;20930;-61
2022/07/22 00:38:39;;;;;;;;;;;;;;;21.43;43.26;153042.39;1751336;82;20233;-61
2022/07/22 00:41:06;;;;;;;;;;;;;;;21.38;43.39;153029.33;1751229;82;21233;-61
2022/07/22 00:43:53;;;;;;;;;;;;;;;21.33;43.52;153016.22;1750965;82;20217;-61
2022/07/22 00:46:19;;;;;;;;;;;;;;;21.26;43.70;152997.94;1751005;82;20504;-62
2022/07/22 00:48:46;;;;;;;;;;;;;;;21.17;43.96;152977.05;1751129;82;20101;-61
2022/07/22 00:51:14;;;;;;;;;;;;;;;21.12;44.18;152963.98;1750996;82;20217;-61
2022/07/22 00:53:41;;;;;;;;;;;;;;;21.11;44.22;152961.38;1751241;82;39066;-62
2022/07/22 00:56:09;;;;;;;;;;;;;;;21.02;44.23;152937.81;1751044;82;20987;-62
2022/07/22 00:58:35;;;;;;;;;;;;;;;20.95;44.50;152919.53;1728947;82;20240;-62
2022/07/22 01:01:02;;;;;;;;;;;;;;;20.87;44.71;152901.22;1751008;82;20177;-62
2022/07/22 01:03:30;;;;;;;;;;;;;;;20.82;44.87;152888.16;1751229;82;20157;-62
2022/07/22 01:05:57;;;;;;;;;;;;;;;20.77;45.02;152875.05;1751221;82;21119;-62
2022/07/22 01:08:24;;;;;;;;;;;;;;;20.74;45.34;152868.50;1751031;82;20194;-62
2022/07/22 01:10:52;;;;;;;;;;;;;;;20.75;45.51;152869.83;1747349;82;20119;-70
2022/07/22 01:13:19;;;;;;;;;;;;;;;20.76;45.53;152872.44;1739167;81;20726;-71
2022/07/22 01:15:46;;;;;;;;;;;;;;;20.75;45.73;152871.11;1739635;81;20151;-70
2022/07/22 01:18:13;;;;;;;;;;;;;;;20.69;45.85;152854.16;1725234;81;21224;-70
2022/07/22 01:20:41;;;;;;;;;;;;;;;20.68;45.90;152852.83;1708065;84;20455;-70
2022/07/22 01:23:08;;;;;;;;;;;;;;;20.76;45.84;152872.44;1690369;84;20206;-70
2022/07/22 01:25:34;;;;;;;;;;;;;;;20.86;45.78;152898.59;1708102;82;20206;-70
2022/07/22 01:28:01;;;;;;;;;;;;;;;20.93;45.70;152914.31;1708396;83;20186;-70
2022/07/22 01:30:28;;;;;;;;;;;;;;;21.00;45.68;152932.59;1708270;82;21187;-70
2022/07/22 01:32:55;;;;;;;;;;;;;;;21.09;45.61;152956.09;1708700;82;20142;-70
2022/07/22 01:35:22;;;;;;;;;;;;;;;21.13;45.58;152966.59;1708505;84;20468;-70
2022/07/22 01:37:49;;;;;;;;;;;;;;;21.15;45.57;152970.48;1708533;82;20369;-69
2022/07/22 01:40:15;;;;;;;;;;;;;;;21.16;45.65;152974.42;1708572;82;20483;-70
2022/07/22 01:42:42;;;;;;;;;;;;;;;21.12;45.74;152962.66;1708309;84;22160;-70
2022/07/22 01:45:10;;;;;;;;;;;;;;;21.12;45.83;152962.66;1708500;83;21991;-69
2022/07/22 01:47:38;;;;;;;;;;;;;;;21.09;45.93;152956.09;1708377;82;20212;-69
2022/07/22 01:50:06;;;;;;;;;;;;;;;21.15;45.91;152971.81;1708444;82;20178;-69
2022/07/22 01:52:34;;;;;;;;;;;;;;;21.11;45.80;152961.38;1708600;82;20206;-70
2022/07/22 01:55:02;;;;;;;;;;;;;;;21.03;45.94;152941.75;1708252;82;21683;-70
2022/07/22 01:57:30;;;;;;;;;;;;;;;21.01;46.03;152936.53;1708183;82;20168;-61
2022/07/22 01:59:56;;;;;;;;;;;;;;;21.04;46.00;152943.05;1714167;82;20231;-69
2022/07/22 02:02:24;;;;;;;;;;;;;;;21.02;45.99;152937.81;1708366;83;20175;-69
2022/07/22 02:04:50;;;;;;;;;;;;;;;21.01;46.03;152936.53;1708911;82;20096;-60
2022/07/22 02:07:17;;;;;;;;;;;;;;;21.01;46.02;152935.20;1708147;82;21136;-61
2022/07/22 02:09:44;;;;;;;;;;;;;;;20.97;46.05;152924.75;1707935;82;20219;-70
2022/07/22 02:12:14;;;;;;;;;;;;;;;20.90;46.16;152907.77;1734400;82;20551;-69
2022/07/22 02:14:43;;;;;;;;;;;;;;;20.83;46.30;152889.48;1737658;82;20878;-62
2022/07/22 02:17:10;;;;;;;;;;;;;;;20.75;46.49;152869.83;1737658;82;20230;-62
2022/07/22 02:19:40;;;;;;;;;;;;;;;20.68;46.73;152851.55;1737425;81;20439;-62
2022/07/22 02:22:08;;;;;;;;;;;;;;;20.64;46.86;152841.06;1734056;82;20609;-62
2022/07/22 02:24:35;;;;;;;;;;;;;;;20.61;47.09;152834.56;1734183;81;20179;-70
2022/07/22 02:27:03;;;;;;;;;;;;;;;20.59;47.23;152830.63;1734201;82;20431;-62
2022/07/22 02:29:31;;;;;;;;;;;;;;;20.58;47.31;152828.00;1734228;82;20147;-62
2022/07/22 02:31:58;;;;;;;;;;;;;;;20.57;47.46;152825.39;1734631;81;21920;-69
2022/07/22 02:34:25;;;;;;;;;;;;;;;20.63;47.50;152838.44;1725141;83;20220;-69
2022/07/22 02:36:54;;;;;;;;;;;;;;;20.64;47.52;152841.06;1746807;81;20403;-69
2022/07/22 02:39:22;;;;;;;;;;;;;;;20.67;47.52;152850.22;1746650;82;20772;-69
2022/07/22 02:41:49;;;;;;;;;;;;;;;20.74;47.53;152867.22;1746410;82;20191;-61
2022/07/22 02:44:16;;;;;;;;;;;;;;;20.80;47.48;152882.94;1746714;82;21126;-70
2022/07/22 02:46:43;;;;;;;;;;;;;;;20.85;47.39;152895.98;1746314;82;20122;-70
2022/07/22 02:49:12;;;;;;;;;;;;;;;20.88;47.37;152903.81;1746217;80;20122;-70
2022/07/22 02:51:39;;;;;;;;;;;;;;;20.95;47.32;152920.81;1746327;82;20193;-61
2022/07/22 02:54:05;;;;;;;;;;;;;;;20.98;47.29;152927.38;1746466;82;20467;-61
2022/07/22 02:56:32;;;;;;;;;;;;;;;20.99;47.33;152929.98;1746147;82;21229;-70
2022/07/22 02:59:00;;;;;;;;;;;;;;;20.99;47.38;152929.98;1746443;82;20142;-61
2022/07/22 03:01:27;;;;;;;;;;;;;;;21.07;47.40;152950.88;1746376;82;20219;-61
2022/07/22 03:03:56;;;;;;;;;;;;;;;21.16;47.36;152973.09;1746231;82;20135;-61
2022/07/22 03:06:24;;;;;;;;;;;;;;;21.27;47.30;153000.55;1746498;82;20427;-61
2022/07/22 03:08:53;;;;;;;;;;;;;;;21.38;47.06;153029.33;1745768;82;21242;-71
2022/07/22 03:11:20;;;;;;;;;;;;;;;21.39;47.02;153030.61;1732907;81;20476;-71
2022/07/22 03:13:47;;;;;;;;;;;;;;;21.37;47.13;153026.72;1720735;83;20322;-71
2022/07/22 03:16:14;;;;;;;;;;;;;;;21.41;47.16;153035.83;1720623;83;20836;-70
2022/07/22 03:18:40;;;;;;;;;;;;;;;21.50;47.16;153058.06;1732932;82;20226;-62
2022/07/22 03:21:07;;;;;;;;;;;;;;;21.66;46.85;153099.95;1726617;82;21235;-62
2022/07/22 03:23:34;;;;;;;;;;;;;;;21.79;46.61;153131.36;1691801;83;20172;-71
2022/07/22 03:26:01;;;;;;;;;;;;;;;21.88;46.47;153156.20;1722746;82;20192;-71
2022/07/22 03:28:29;;;;;;;;;;;;;;;22.01;46.21;153188.89;1722938;83;20766;-70
2022/07/22 03:30:56;;;;;;;;;;;;;;;22.15;45.94;153222.86;1723007;83;20089;-71
2022/07/22 03:33:22;;;;;;;;;;;;;;;22.28;45.63;153256.87;1722779;82;22590;-71
2022/07/22 03:35:49;;;;;;;;;;;;;;;22.36;45.41;153276.50;1722750;83;20184;-71
2022/07/22 03:38:17;;;;;;;;;;;;;;;22.46;45.26;153302.69;1722731;83;20418;-70
2022/07/22 03:40:45;;;;;;;;;;;;;;;22.53;45.11;153319.70;1722613;82;20219;-60
2022/07/22 03:43:13;;;;;;;;;;;;;;;22.58;45.11;153332.78;1722943;82;20207;-61
2022/07/22 03:45:40;;;;;;;;;;;;;;;22.68;45.00;153356.34;1722593;83;21287;-60
2022/07/22 03:48:07;;;;;;;;;;;;;;;22.75;44.93;153374.66;1722613;83;20482;-61
2022/07/22 03:50:37;;;;;;;;;;;;;;;22.84;44.88;153398.19;1722004;82;20311;-70
2022/07/22 03:53:05;;;;;;;;;;;;;;;22.94;44.70;153421.77;1722522;83;20221;-62
2022/07/22 03:55:32;;;;;;;;;;;;;;;22.98;44.62;153433.50;1722686;83;20224;-71
2022/07/22 03:58:01;;;;;;;;;;;;;;;23.06;44.58;153451.84;1722757;83;21830;-69
2022/07/22 04:00:30;;;;;;;;;;;;;;;23.12;44.50;153467.53;1722539;83;20192;-70
2022/07/22 04:02:58;;;;;;;;;;;;;;;23.18;44.44;153483.22;1722659;83;20141;-62
2022/07/22 04:05:29;;;;;;;;;;;;;;;23.24;44.31;153497.64;1662815;83;20486;-62
2022/07/22 04:07:56;;;;;;;;;;;;;;;23.25;44.37;153500.25;1722733;83;20190;-70
2022/07/22 04:10:25;;;;;;;;;;;;;;;23.29;44.39;153510.77;1723327;82;20200;-62
2022/07/22 04:12:53;;;;;;;;;;;;;;;23.34;44.36;153523.88;1728076;82;20430;-62
2022/07/22 04:15:37;;;;;;;;;;;;;;;23.36;44.38;153527.78;1726740;82;20177;-62
2022/07/22 04:18:05;;;;;;;;;;;;;;;23.40;44.48;153539.58;1726133;82;20659;-62
2022/07/22 04:20:32;;;;;;;;;;;;;;;23.46;44.38;153553.98;1727781;82;20198;-62
2022/07/22 04:23:01;;;;;;;;;;;;;;;23.48;44.34;153557.88;1702477;82;21158;-62
2022/07/22 04:25:28;;;;;;;;;;;;;;;23.46;44.46;153555.27;1736825;82;20398;-62
2022/07/22 04:27:57;;;;;;;;;;;;;;;23.53;44.60;153570.95;1736777;82;20392;-62
2022/07/22 04:30:25;;;;;;;;;;;;;;;23.65;44.48;153601.06;1736827;82;20730;-61
2022/07/22 04:32:52;;;;;;;;;;;;;;;23.77;44.34;153631.22;1736825;82;20182;-61
2022/07/22 04:35:19;;;;;;;;;;;;;;;23.82;44.44;153644.30;1737033;82;22864;-60
2022/07/22 04:37:47;;;;;;;;;;;;;;;23.89;44.34;153663.94;1735631;82;20175;-60
2022/07/22 04:40:14;;;;;;;;;;;;;;;23.92;44.43;153670.45;1736624;82;20536;-70
2022/07/22 04:42:41;;;;;;;;;;;;;;;23.98;44.35;153684.88;1736505;82;20193;-71
2022/07/22 04:45:09;;;;;;;;;;;;;;;24.05;44.35;153701.95;1737169;82;20210;-61
2022/07/22 04:47:36;;;;;;;;;;;;;;;24.11;44.35;153718.97;1736898;82;21821;-61
2022/07/22 04:50:04;;;;;;;;;;;;;;;24.23;44.29;153749.09;1737562;82;20467;-62
2022/07/22 04:52:30;;;;;;;;;;;;;;;24.40;44.16;153792.28;1737154;82;20483;-62
2022/07/22 04:54:58;;;;;;;;;;;;;;;24.59;43.96;153840.72;1716443;82;20192;-62
2022/07/22 04:57:26;;;;;;;;;;;;;;;24.78;43.63;153887.94;1737109;82;20199;-62
2022/07/22 04:59:53;;;;;;;;;;;;;;;24.95;43.29;153929.86;1737313;82;21221;-62
2022/07/22 05:02:20;;;;;;;;;;;;;;;25.05;42.95;153956.03;1737431;82;20150;-71
2022/07/22 05:04:47;;;;;;;;;;;;;;;25.08;42.87;153963.89;1737325;82;20171;-71
2022/07/22 05:07:14;;;;;;;;;;;;;;;25.18;42.90;153990.13;1737286;82;20171;-71
2022/07/22 05:09:43;;;;;;;;;;;;;;;25.30;42.78;154018.92;1737392;82;20178;-71
2022/07/22 05:12:11;;;;;;;;;;;;;;;25.40;42.58;154045.16;1738817;82;21283;-71
2022/07/22 05:14:39;;;;;;;;;;;;;;;25.52;42.49;154075.33;1738662;82;20471;-73
2022/07/22 05:17:12;;;;;;;;;;;;;;;25.62;41.98;154100.23;1738895;82;20464;-71
2022/07/22 05:19:40;;;;;;;;;;;;;;;25.62;42.15;154100.23;1707481;83;20182;-71
2022/07/22 05:22:08;;;;;;;;;;;;;;;25.74;42.16;154130.38;1712546;83;20132;-60
2022/07/22 05:24:35;;;;;;;;;;;;;;;25.83;42.05;154152.66;1717719;82;21235;-61
2022/07/22 05:27:03;;;;;;;;;;;;;;;25.86;41.91;154160.52;1712957;82;20170;-61
2022/07/22 05:29:30;;;;;;;;;;;;;;;25.84;41.63;154156.56;1697153;84;20210;-70
2022/07/22 05:31:57;;;;;;;;;;;;;;;25.79;41.81;154142.19;1696927;84;20179;-62
2022/07/22 05:34:24;;;;;;;;;;;;;;;25.84;41.99;154155.28;1697352;84;20252;-62
2022/07/22 05:36:53;;;;;;;;;;;;;;;25.92;41.97;154176.23;1697148;83;21158;-61
2022/07/22 05:39:20;;;;;;;;;;;;;;;26.05;41.38;154207.72;1696977;83;20221;-61
2022/07/22 05:41:47;;;;;;;;;;;;;;;26.08;41.34;154215.56;1696908;84;20530;-61
2022/07/22 05:44:14;;;;;;;;;;;;;;;26.14;41.31;154231.28;1718467;81;20246;-61
2022/07/22 05:46:41;;;;;;;;;;;;;;;26.21;41.40;154248.38;1738106;81;20504;-62
2022/07/22 05:49:08;;;;;;;;;;;;;;;26.29;41.27;154270.67;1730301;81;20538;-61
2022/07/22 05:51:36;;;;;;;;;;;;;;;26.39;41.07;154295.59;1719588;82;20493;-69
2022/07/22 05:54:04;;;;;;;;;;;;;;;26.54;40.70;154332.31;1721080;82;20453;-61
2022/07/22 05:56:30;;;;;;;;;;;;;;;26.65;40.62;154359.84;1723049;81;20168;-61
2022/07/22 05:58:57;;;;;;;;;;;;;;;26.77;40.62;154391.28;1727230;81;20203;-62
2022/07/22 06:01:24;;;;;;;;;;;;;;;26.78;40.32;154392.63;1726494;81;21060;-62
2022/07/22 06:03:51;;;;;;;;;;;;;;;26.77;40.52;154391.28;1717551;82;20196;-62
2022/07/22 06:06:17;;;;;;;;;;;;;;;26.76;40.39;154388.67;1722520;82;20234;-70
2022/07/22 06:08:45;;;;;;;;;;;;;;;26.79;40.34;154396.53;1720392;82;20685;-70
2022/07/22 06:11:12;;;;;;;;;;;;;;;26.91;40.08;154425.45;1730857;81;20238;-69
2022/07/22 06:13:41;;;;;;;;;;;;;;;26.94;39.92;154433.31;1720533;82;20200;-69
2022/07/22 06:16:08;;;;;;;;;;;;;;;26.95;39.88;154435.94;1728680;81;20203;-69
2022/07/22 06:18:36;;;;;;;;;;;;;;;26.94;40.22;154433.31;1719803;82;20227;-72
2022/07/22 06:21:04;;;;;;;;;;;;;;;27.05;39.63;154460.86;1714053;82;20176;-73
2022/07/22 06:23:32;;;;;;;;;;;;;;;26.98;39.84;154443.80;1704211;83;20619;-72
2022/07/22 06:25:59;;;;;;;;;;;;;;;27.05;39.81;154460.86;1709753;81;21111;-72
2022/07/22 06:28:27;;;;;;;;;;;;;;;27.15;39.88;154487.06;1686850;84;20200;-72
2022/07/22 06:30:54;;;;;;;;;;;;;;;27.30;39.77;154526.44;1693587;84;20488;-71
2022/07/22 06:33:21;;;;;;;;;;;;;;;27.51;39.57;154578.95;1685908;84;20694;-71
2022/07/22 06:35:48;;;;;;;;;;;;;;;27.74;39.28;154636.67;1696053;83;20201;-72
2022/07/22 06:38:15;;;;;;;;;;;;;;;27.78;38.88;154645.88;1691920;83;21080;-71
2022/07/22 06:40:51;;;;;;;;;;;;;;;27.83;38.80;154660.27;1707105;82;20213;-72
2022/07/22 06:43:36;;;;;;;;;;;;;;;27.91;38.62;154679.97;1704446;83;20219;-71
2022/07/22 06:46:11;;;;;;;;;;;;;;;27.94;38.60;154687.83;1708949;82;20567;-71
2022/07/22 06:48:45;;;;;;;;;;;;;;;28.08;38.66;154723.30;1705638;82;20225;-72
2022/07/22 06:51:12;;;;;;;;;;;;;;;28.39;38.23;154800.73;1702886;83;21181;-72
2022/07/22 06:53:39;;;;;;;;;;;;;;;28.58;37.92;154850.61;1704052;82;20209;-71
2022/07/22 06:56:07;;;;;;;;;;;;;;;28.87;37.50;154922.88;1703885;82;20204;-74
2022/07/22 06:58:33;;;;;;;;;;;;;;;29.15;36.95;154995.09;1709899;82;20592;-72
2022/07/22 07:01:00;;;;;;;;;;;;;;;29.28;36.83;155026.58;1705238;82;20198;-71
2022/07/22 07:03:32;;;;;;;;;;;;;;;29.33;36.65;155038.41;1708370;82;21095;-72
2022/07/22 07:06:00;;;;;;;;;;;;;;;29.34;36.48;155042.38;1706045;83;20476;-71
2022/07/22 07:08:30;;;;;;;;;;;;;;;29.11;36.98;154984.59;1703331;83;20248;-71
2022/07/22 07:10:57;;;;;;;;;;;;;;;29.11;37.30;154984.59;1705203;83;20684;-72
2022/07/22 07:13:24;;;;;;;;;;;;;;;29.21;37.07;155009.55;1705368;83;20610;-71
2022/07/22 07:15:52;;;;;;;;;;;;;;;29.28;37.17;155026.58;1705766;83;21197;-71
2022/07/22 07:18:20;;;;;;;;;;;;;;;29.27;37.13;155023.95;1702573;83;20568;-71
2022/07/22 07:20:48;;;;;;;;;;;;;;;29.26;36.96;155021.33;1698540;83;20209;-72
2022/07/22 07:23:16;;;;;;;;;;;;;;;29.25;37.16;155018.70;1701905;82;20798;-71
2022/07/22 07:25:44;;;;;;;;;;;;;;;29.15;37.24;154995.09;1690506;84;20383;-72
2022/07/22 07:28:13;;;;;;;;;;;;;;;29.07;37.41;154974.11;1689316;83;21289;-72
2022/07/22 07:30:50;;;;;;;;;;;;;;;29.10;37.45;154981.97;1711622;82;20344;-71
2022/07/22 07:33:17;;;;;;;;;;;;;;;29.19;37.43;155002.97;1702255;83;20213;-71
2022/07/22 07:35:44;;;;;;;;;;;;;;;29.27;37.24;155023.95;1706860;83;20404;-71
2022/07/22 07:38:11;;;;;;;;;;;;;;;29.35;37.43;155045.00;1705239;83;20395;-71
2022/07/22 07:40:39;;;;;;;;;;;;;;;29.40;37.48;155058.11;1705549;82;21246;-71
2022/07/22 07:43:06;;;;;;;;;;;;;;;29.43;37.49;155066.03;1701407;83;20405;-72
2022/07/22 07:45:33;;;;;;;;;;;;;;;29.34;37.25;155041.03;1704404;82;20225;-72
2022/07/22 07:48:00;;;;;;;;;;;;;;;29.14;37.72;154992.47;1706355;82;20473;-61
2022/07/22 07:50:27;;;;;;;;;;;;;;;29.03;38.14;154963.56;1703581;83;20880;-72
2022/07/22 07:52:54;;;;;;;;;;;;;;;29.02;38.43;154962.28;1701883;83;21858;-61
2022/07/22 07:55:21;;;;;;;;;;;;;;;29.01;38.26;154959.66;1693876;83;20217;-61
2022/07/22 07:57:51;;;;;;;;;;;;;;;28.96;38.40;154945.19;1694164;83;20212;-61
2022/07/22 08:00:21;;;;;;;;;;;;;;;28.91;38.82;154932.08;1698129;82;20700;-61
2022/07/22 08:02:48;;;;;;;;;;;;;;;28.83;38.70;154913.66;1702435;83;20212;-60
2022/07/22 08:05:16;;;;;;;;;;;;;;;28.78;39.01;154899.22;1703594;83;21231;-61
2022/07/22 08:07:42;;;;;;;;;;;;;;;28.78;39.00;154899.22;1699880;83;20211;-61
2022/07/22 08:10:10;;;;;;;;;;;;;;;28.80;39.08;154905.80;1713501;82;20174;-60
2022/07/22 08:12:57;;;;;;;;;;;;;;;28.87;38.78;154924.22;1699613;83;20508;-71
2022/07/22 08:15:35;;;;;;;;;;;;;;;29.05;38.89;154967.52;1669315;85;20670;-61
2022/07/22 08:18:04;;;;;;;;;;;;;;;29.22;38.67;155010.84;1703607;82;21225;-73
2022/07/22 08:20:30;;;;;;;;;;;;;;;29.30;37.71;155031.88;1701884;83;20248;-72
2022/07/22 08:22:57;;;;;;;;;;;;;;;29.18;37.94;155000.34;1721688;81;20176;-61
2022/07/22 08:25:26;;;;;;;;;;;;;;;29.16;38.17;154997.72;1723652;81;20474;-60
2022/07/22 08:27:53;;;;;;;;;;;;;;;29.33;38.13;155039.75;1716079;81;20207;-72
2022/07/22 08:30:23;;;;;;;;;;;;;;;29.49;37.57;155080.50;1724751;82;21081;-73
2022/07/22 08:32:50;;;;;;;;;;;;;;;29.37;37.69;155050.25;1727201;82;20216;-72
2022/07/22 08:35:19;;;;;;;;;;;;;;;29.37;37.94;155050.25;1727873;82;20199;-72
2022/07/22 08:37:48;;;;;;;;;;;;;;;29.47;37.98;155073.91;1711496;82;21740;-72
2022/07/22 08:40:16;;;;;;;;;;;;;;;29.45;37.73;155070.00;1706478;82;20177;-72
2022/07/22 08:42:44;;;;;;;;;;;;;;;29.44;37.67;155067.38;1732554;82;21292;-72
2022/07/22 08:45:12;;;;;;;;;;;;;;;29.45;37.37;155071.28;1723962;81;20179;-72
2022/07/22 08:47:38;;;;;;;;;;;;;;;29.50;37.75;155081.78;1727486;82;20200;-71
2022/07/22 08:50:10;;;;;;;;;;;;;;;29.50;37.64;155081.78;1722256;82;20867;-72
2022/07/22 08:52:38;;;;;;;;;;;;;;;29.56;37.41;155097.58;1708621;80;20656;-71
2022/07/22 08:55:07;;;;;;;;;;;;;;;29.65;37.29;155119.91;1720999;81;21219;-71
2022/07/22 08:57:35;;;;;;;;;;;;;;;29.47;37.83;155075.25;1738226;80;20273;-72
2022/07/22 09:00:05;;;;;;;;;;;;;;;29.25;38.19;155018.70;1741168;82;20184;-72
2022/07/22 09:02:37;;;;;;;;;;;;;;;29.09;38.58;154978.02;1738755;81;20265;-72
2022/07/22 09:05:06;;;;;;;;;;;;;;;28.98;39.04;154950.44;1742429;81;20176;-70
2022/07/22 09:07:36;;;;;;;;;;;;;;;28.99;38.62;154953.06;1734090;80;21196;-70
2022/07/22 09:10:08;;;;;;;;;;;;;;;28.90;38.84;154930.75;1724812;81;20152;-71
2022/07/22 09:12:58;;;;;;;;;;;;;;;28.96;38.97;154946.53;1719428;81;20179;-72
2022/07/22 09:15:54;;;;;;;;;;;;;;;29.09;38.55;154979.34;1725760;81;20974;-72
2022/07/22 09:18:33;;;;;;;;;;;;;;;29.18;38.21;155000.34;1705574;82;20197;-73
2022/07/22 09:21:01;;;;;;;;;;;;;;;29.05;38.62;154968.81;1698447;83;21214;-72
2022/07/22 09:23:30;;;;;;;;;;;;;;;29.02;39.00;154960.94;1727786;81;20175;-72
2022/07/22 09:25:56;;;;;;;;;;;;;;;29.05;38.95;154968.81;1680577;83;20144;-61
2022/07/22 09:28:31;;;;;;;;;;;;;;;29.02;38.93;154960.94;1721360;82;20235;-61
2022/07/22 09:31:33;;;;;;;;;;;;;;;28.94;38.76;154939.95;1725434;82;20197;-61
2022/07/22 09:34:14;;;;;;;;;;;;;;;28.93;38.89;154938.61;1721984;82;21102;-60
2022/07/22 09:36:55;;;;;;;;;;;;;;;28.97;38.88;154947.81;1677634;83;20259;-60
2022/07/22 09:39:30;;;;;;;;;;;;;;;29.00;39.14;154957.03;1722582;82;20125;-60
2022/07/22 09:42:00;;;;;;;;;;;;;;;29.01;39.20;154958.31;1718442;82;20154;-60
2022/07/22 09:44:29;;;;;;;;;;;;;;;29.06;39.25;154970.14;1716314;82;20515;-60
2022/07/22 09:46:57;;;;;;;;;;;;;;;29.12;38.94;154985.89;1722030;83;21120;-61
2022/07/22 09:49:33;;;;;;;;;;;;;;;29.16;38.86;154997.72;1719878;82;20185;-63
2022/07/22 09:52:19;;;;;;;;;;;;;;;29.17;38.24;154999.00;1736908;81;20200;-60
2022/07/22 09:54:47;;;;;;;;;;;;;;;29.19;38.08;155002.97;1733436;82;20204;-61
2022/07/22 09:57:14;;;;;;;;;;;;;;;29.28;37.33;155026.58;1737097;82;20172;-76
2022/07/22 09:59:41;;;;;;;;;;;;;;;29.24;36.96;155016.08;1728061;82;21193;-61
2022/07/22 10:02:19;;;;;;;;;;;;;;;29.15;36.74;154995.09;1732789;80;20173;-63
2022/07/22 10:04:47;;;;;;;;;;;;;;;29.12;37.08;154987.22;1737990;81;20314;-61
2022/07/22 10:07:17;;;;;;;;;;;;;;;29.20;36.57;155005.59;1703471;82;20708;-62
2022/07/22 10:09:46;;;;;;;;;;;;;;;29.26;36.29;155022.67;1734242;82;20524;-75
2022/07/22 10:12:13;;;;;;;;;;;;;;;29.34;35.89;155041.03;1704436;83;21126;-60
2022/07/22 10:14:42;;;;;;;;;;;;;;;29.29;36.18;155029.20;1723335;83;20455;-61
2022/07/22 10:17:09;;;;;;;;;;;;;;;29.33;35.56;155039.75;1721085;82;20191;-76
2022/07/22 10:19:36;;;;;;;;;;;;;;;29.29;35.20;155029.20;1716624;83;20612;-75
2022/07/22 10:22:03;;;;;;;;;;;;;;;29.16;35.23;154997.72;1722597;82;20186;-76
2022/07/22 10:24:30;;;;;;;;;;;;;;;29.06;35.72;154971.44;1697604;83;21225;-75
2022/07/22 10:27:01;;;;;;;;;;;;;;;29.10;35.43;154981.97;1701819;83;20182;-76
2022/07/22 10:29:31;;;;;;;;;;;;;;;29.16;35.21;154996.38;1696519;83;20228;-76
2022/07/22 10:32:17;;;;;;;;;;;;;;;29.22;34.49;155010.84;1705038;82;20223;-75
2022/07/22 10:35:01;;;;;;;;;;;;;;;29.18;34.66;155000.34;1680572;81;20229;-74
2022/07/22 10:37:40;;;;;;;;;;;;;;;29.11;34.07;154983.27;1685157;82;21235;-61
2022/07/22 10:40:17;;;;;;;;;;;;;;;29.09;33.80;154979.34;1703096;82;20221;-61
2022/07/22 10:43:04;;;;;;;;;;;;;;;29.07;34.44;154972.77;1657305;83;75891;-74
2022/07/22 10:45:36;;;;;;;;;;;;;;;28.99;34.39;154953.06;1626137;86;20100;-75
2022/07/22 10:48:09;;;;;;;;;;;;;;;28.97;33.53;154947.81;1605180;87;20192;-74
2022/07/22 10:50:39;;;;;;;;;;;;;;;28.97;33.32;154947.81;1625068;87;21276;-61
2022/07/22 10:53:09;;;;;;;;;;;;;;;28.93;33.67;154938.61;1623162;86;20173;-60
2022/07/22 10:55:38;;;;;;;;;;;;;;;28.94;33.65;154939.95;1625143;86;20281;-61
2022/07/22 10:58:39;;;;;;;;;;;;;;;28.91;33.99;154932.08;1625436;86;20742;-61
2022/07/22 11:04:41;;;;;;;;;;;;;;;28.89;33.66;154928.13;1624061;85;20249;-60
2022/07/22 11:07:08;;;;;;;;;;;;;;;28.82;33.52;154911.05;1635615;86;20239;-61
2022/07/22 11:09:37;;;;;;;;;;;;;;;28.80;33.02;154905.80;1633540;87;20192;-61
2022/07/22 11:12:05;;;;;;;;;;;;;;;28.82;32.74;154911.05;1636407;86;20227;-61
2022/07/22 11:14:33;;;;;;;;;;;;;;;28.88;32.48;154926.84;1634633;87;20187;-61
2022/07/22 11:17:08;;;;;;;;;;;;;;;28.90;32.49;154929.45;1636276;87;21287;-61
2022/07/22 11:19:38;;;;;;;;;;;;;;;28.91;32.56;154932.08;1633310;86;20195;-60
2022/07/22 11:22:12;;;;;;;;;;;;;;;28.92;32.75;154934.70;1634202;86;20184;-60
2022/07/22 11:24:39;;;;;;;;;;;;;;;28.90;32.76;154930.75;1622515;88;20638;-60
2022/07/22 11:27:09;;;;;;;;;;;;;;;28.94;32.85;154941.23;1620222;87;20149;-60
2022/07/22 11:29:40;;;;;;;;;;;;;;;29.02;32.97;154960.94;1621901;87;21885;-60
2022/07/22 11:32:09;;;;;;;;;;;;;;;29.09;32.69;154979.34;1620381;87;20272;-61
2022/07/22 11:34:42;;;;;;;;;;;;;;;29.10;32.93;154981.97;1618385;87;20204;-62
2022/07/22 11:37:09;;;;;;;;;;;;;;;29.12;32.08;154987.22;1622460;86;20455;-58
2022/07/22 11:39:36;;;;;;;;;;;;;;;29.07;32.28;154974.11;1623012;87;20188;-60
2022/07/22 11:42:03;;;;;;;;;;;;;;;29.13;32.40;154988.50;1620544;87;21762;-60
2022/07/22 11:44:33;;;;;;;;;;;;;;;29.25;32.40;155018.70;1619827;87;20206;-60
2022/07/22 11:47:00;;;;;;;;;;;;;;;29.31;32.16;155034.50;1618782;87;20197;-60
2022/07/22 11:49:29;;;;;;;;;;;;;;;29.34;32.25;155042.38;1619747;87;20185;-60
2022/07/22 11:51:56;;;;;;;;;;;;;;;29.34;32.33;155042.38;1628034;85;20183;-60
2022/07/22 11:54:23;;;;;;;;;;;;;;;29.35;32.70;155045.00;1620807;86;21255;-60
2022/07/22 11:56:50;;;;;;;;;;;;;;;29.44;32.67;155068.66;1620355;86;20194;-62
2022/07/22 11:59:20;;;;;;;;;;;;;;;29.52;32.67;155087.08;1620125;86;20196;-62
2022/07/22 12:01:48;;;;;;;;;;;;;;;29.50;32.84;155081.78;1620718;86;20792;-61
2022/07/22 12:04:18;;;;;;;;;;;;;;;29.43;32.95;155064.75;1619786;88;20223;-61
2022/07/22 12:06:44;;;;;;;;;;;;;;;29.50;33.04;155083.13;1618589;87;21196;-61
2022/07/22 12:09:18;;;;;;;;;;;;;;;29.61;32.17;155110.70;1619786;87;20184;-61
2022/07/22 12:11:46;;;;;;;;;;;;;;;29.65;32.03;155121.19;1620024;86;20244;-59
2022/07/22 12:14:21;;;;;;;;;;;;;;;29.61;31.82;155110.70;1626955;86;20519;-59
2022/07/22 12:17:04;;;;;;;;;;;;;;;29.45;31.80;155071.28;1620810;87;20196;-60
2022/07/22 12:19:33;;;;;;;;;;;;;;;29.33;31.29;155039.75;1605030;87;21345;-60
2022/07/22 12:22:05;;;;;;;;;;;;;;;29.26;31.51;155021.33;1625861;87;20199;-61
2022/07/22 12:25:07;;;;;;;;;;;;;;;29.22;31.05;155010.84;1623940;87;20183;-60
2022/07/22 12:27:30;;;;;;;;;;;;;;;29.24;31.16;155016.08;1614071;87;20406;-59
2022/07/22 12:30:18;;;;;;;;;;;;;;;29.31;31.32;155034.50;1621080;86;20182;-59
2022/07/22 12:32:47;;;;;;;;;;;;;;;29.30;31.40;155031.88;1603224;88;21130;-59
2022/07/22 12:35:14;;;;;;;;;;;;;;;29.24;31.28;155016.08;1624622;87;20143;-60
2022/07/22 12:37:44;;;;;;;;;;;;;;;29.24;31.37;155016.08;1625376;87;20224;-60
2022/07/22 12:40:19;;;;;;;;;;;;;;;29.23;31.63;155013.47;1624800;86;20179;-60
2022/07/22 12:43:05;;;;;;;;;;;;;;;29.30;31.96;155031.88;1586330;87;20483;-61
2022/07/22 12:45:34;;;;;;;;;;;;;;;29.42;31.51;155063.41;1599084;88;21162;-61
2022/07/22 12:48:06;;;;;;;;;;;;;;;29.41;31.57;155060.78;1624754;88;20208;-60
2022/07/22 12:50:42;;;;;;;;;;;;;;;29.34;30.66;155042.38;1618265;88;20182;-61